createdAt,value
2023-11-11T00:00:39.523Z,8.00
2023-11-11T00:03:09.200Z,8.10
2023-11-11T00:05:37.385Z,8.00
2023-11-11T00:08:05.759Z,8.10
2023-11-11T00:10:34.786Z,8.00
2023-11-11T00:13:04.170Z,8.10
2023-11-11T00:15:33.924Z,8.10
2023-11-11T00:18:02.066Z,8.00
2023-11-11T00:20:31.426Z,8.00
2023-11-11T00:22:59.517Z,8.00
2023-11-11T00:25:27.508Z,8.00
2023-11-11T00:27:55.902Z,8.00
2023-11-11T00:30:23.939Z,8.00
2023-11-11T00:32:55.304Z,8.00
2023-11-11T00:35:23.464Z,8.00
2023-11-11T00:37:52.768Z,8.00
2023-11-11T00:40:20.903Z,7.90
2023-11-11T00:42:49.662Z,7.90
2023-11-11T00:45:18.517Z,8.00
2023-11-11T00:47:46.615Z,7.90
2023-11-11T00:50:14.591Z,7.90
2023-11-11T00:52:42.606Z,7.90
2023-11-11T00:55:12.497Z,7.90
2023-11-11T00:57:42.167Z,7.90
2023-11-11T01:00:12.320Z,7.90
2023-11-11T01:02:41.991Z,7.90
2023-11-11T01:05:13.113Z,7.90
2023-11-11T01:07:41.201Z,7.90
2023-11-11T01:10:11.190Z,7.80
2023-11-11T01:12:40.379Z,7.80
2023-11-11T01:15:10.880Z,7.80
2023-11-11T01:17:39.664Z,7.90
2023-11-11T01:20:08.902Z,7.80
2023-11-11T01:22:37.025Z,7.80
2023-11-11T01:25:05.775Z,7.80
2023-11-11T01:27:37.192Z,7.80
2023-11-11T01:30:06.479Z,7.80
2023-11-11T01:32:34.529Z,7.80
2023-11-11T01:35:02.658Z,7.80
2023-11-11T01:37:30.749Z,7.80
2023-11-11T01:39:59.044Z,7.80
2023-11-11T01:42:27.423Z,7.80
2023-11-11T01:44:57.144Z,7.80
2023-11-11T01:47:25.547Z,7.80
2023-11-11T01:49:53.778Z,7.80
2023-11-11T01:52:22.149Z,7.90
2023-11-11T01:54:50.547Z,7.90
2023-11-11T01:57:18.921Z,7.90
2023-11-11T01:59:48.116Z,7.80
2023-11-11T02:02:17.833Z,7.80
2023-11-11T02:04:45.957Z,7.80
2023-11-11T02:07:15.069Z,7.80
2023-11-11T02:09:43.165Z,7.80
2023-11-11T02:12:12.063Z,7.80
2023-11-11T02:14:40.389Z,7.80
2023-11-11T02:17:08.691Z,7.80
2023-11-11T02:19:38.041Z,7.80
2023-11-11T02:22:06.074Z,7.80
2023-11-11T02:24:35.951Z,7.80
2023-11-11T02:27:04.160Z,7.80
2023-11-11T02:29:32.177Z,7.80
2023-11-11T02:32:00.201Z,7.80
2023-11-11T02:34:28.158Z,7.80
2023-11-11T02:37:01.159Z,7.80
2023-11-11T02:39:31.401Z,7.80
2023-11-11T02:42:01.898Z,7.70
2023-11-11T02:44:29.982Z,7.80
2023-11-11T02:46:58.029Z,7.70
2023-11-11T02:49:26.403Z,7.70
2023-11-11T02:51:54.462Z,7.70
2023-11-11T02:54:22.671Z,7.70
2023-11-11T02:56:50.689Z,7.60
2023-11-11T02:59:20.041Z,7.60
2023-11-11T03:01:47.984Z,7.60
2023-11-11T03:04:16.065Z,7.60
2023-11-11T03:06:44.277Z,7.60
2023-11-11T03:09:13.130Z,7.60
2023-11-11T03:11:41.988Z,7.50
2023-11-11T03:14:10.516Z,7.50
2023-11-11T03:16:42.220Z,7.50
2023-11-11T03:19:10.855Z,7.50
2023-11-11T03:21:39.236Z,7.50
2023-11-11T03:24:09.288Z,7.40
2023-11-11T03:26:37.330Z,7.40
2023-11-11T03:29:05.375Z,7.40
2023-11-11T03:31:33.396Z,7.40
2023-11-11T03:34:02.961Z,7.40
2023-11-11T03:36:31.077Z,7.40
2023-11-11T03:38:59.112Z,7.30
2023-11-11T03:41:27.287Z,7.30
2023-11-11T03:43:55.292Z,7.30
2023-11-11T03:46:23.506Z,7.30
2023-11-11T03:48:51.570Z,7.30
2023-11-11T03:51:20.994Z,7.30
2023-11-11T03:53:48.987Z,7.20
2023-11-11T03:56:20.221Z,7.20
2023-11-11T03:58:48.423Z,7.20
2023-11-11T04:01:16.456Z,7.20
2023-11-11T04:03:45.129Z,7.20
2023-11-11T04:06:13.931Z,7.10
2023-11-11T04:08:43.596Z,7.20
2023-11-11T04:11:11.765Z,7.10
2023-11-11T04:13:41.074Z,7.10
2023-11-11T04:16:09.707Z,7.10
2023-11-11T04:18:38.791Z,7.10
2023-11-11T04:21:07.534Z,7.10
2023-11-11T04:23:35.472Z,7.00
2023-11-11T04:26:05.291Z,7.00
2023-11-11T04:28:33.284Z,7.00
2023-11-11T04:31:01.379Z,7.00
2023-11-11T04:33:30.437Z,6.90
2023-11-11T04:35:58.544Z,6.90
2023-11-11T04:38:28.809Z,6.90
2023-11-11T04:40:58.200Z,6.80
2023-11-11T04:43:28.540Z,6.80
2023-11-11T04:45:56.624Z,6.80
2023-11-11T04:48:24.761Z,6.80
2023-11-11T04:50:52.840Z,6.70
2023-11-11T04:53:20.915Z,6.70
2023-11-11T04:55:49.510Z,6.60
2023-11-11T04:58:18.457Z,6.60
2023-11-11T05:00:48.072Z,6.60
2023-11-11T05:03:18.517Z,6.60
2023-11-11T05:05:46.682Z,6.50
2023-11-11T05:08:14.819Z,6.60
2023-11-11T05:10:42.912Z,6.50
2023-11-11T05:13:11.040Z,6.50
2023-11-11T05:15:44.367Z,6.50
2023-11-11T05:18:14.362Z,6.50
2023-11-11T05:20:42.612Z,6.40
2023-11-11T05:23:10.952Z,6.40
2023-11-11T05:25:39.233Z,6.40
2023-11-11T05:28:08.487Z,6.40
2023-11-11T05:30:36.985Z,6.40
2023-11-11T05:33:06.372Z,6.40
2023-11-11T05:35:35.890Z,6.30
2023-11-11T05:38:03.889Z,6.30
2023-11-11T05:40:31.957Z,6.30
2023-11-11T05:43:01.332Z,6.30
2023-11-11T05:45:29.846Z,6.30
2023-11-11T05:47:58.202Z,6.30
2023-11-11T05:50:26.230Z,6.30
2023-11-11T05:52:55.641Z,6.30
2023-11-11T05:55:25.954Z,6.30
2023-11-11T05:57:54.056Z,6.30
2023-11-11T06:00:22.425Z,6.30
2023-11-11T06:02:50.616Z,6.20
2023-11-11T06:05:18.779Z,6.20
2023-11-11T06:07:46.781Z,6.20
2023-11-11T06:10:19.028Z,6.20
2023-11-11T06:12:48.573Z,6.10
2023-11-11T06:15:18.459Z,6.20
2023-11-11T06:17:46.854Z,6.10
2023-11-11T06:20:15.010Z,6.10
2023-11-11T06:22:43.662Z,6.10
2023-11-11T06:25:11.743Z,6.10
2023-11-11T06:27:41.291Z,6.10
2023-11-11T06:30:11.323Z,6.10
2023-11-11T06:32:39.769Z,6.10
2023-11-11T06:35:09.921Z,6.10
2023-11-11T06:37:37.964Z,6.00
2023-11-11T06:40:08.075Z,6.00
2023-11-11T06:42:36.222Z,6.10
2023-11-11T06:45:07.420Z,6.10
2023-11-11T06:47:35.613Z,6.10
2023-11-11T06:50:04.382Z,6.10
2023-11-11T06:52:32.906Z,6.10
2023-11-11T06:55:01.659Z,6.10
2023-11-11T06:57:29.762Z,6.10
2023-11-11T06:59:57.810Z,6.20
2023-11-11T07:02:27.218Z,6.20
2023-11-11T07:04:55.737Z,6.10
2023-11-11T07:07:23.891Z,6.20
2023-11-11T07:09:54.231Z,6.20
2023-11-11T07:12:23.851Z,6.20
2023-11-11T07:14:52.056Z,6.20
2023-11-11T07:17:20.751Z,6.20
2023-11-11T07:19:50.139Z,6.20
2023-11-11T07:24:51.043Z,6.20
2023-11-11T07:27:19.351Z,6.20
2023-11-11T07:29:47.609Z,6.20
2023-11-11T07:32:15.723Z,6.20
2023-11-11T07:34:45.576Z,6.20
2023-11-11T07:37:15.437Z,6.30
2023-11-11T07:39:44.221Z,6.30
2023-11-11T07:42:12.735Z,6.30
2023-11-11T07:44:40.994Z,6.30
2023-11-11T07:47:11.447Z,6.30
2023-11-11T07:49:40.364Z,6.30
2023-11-11T07:52:09.728Z,6.30
2023-11-11T07:54:39.574Z,6.40
2023-11-11T07:57:08.900Z,6.40
2023-11-11T07:59:39.822Z,6.40
2023-11-11T08:02:08.233Z,6.40
2023-11-11T08:04:36.268Z,6.50
2023-11-11T08:07:04.295Z,6.50
2023-11-11T08:09:32.790Z,6.50
2023-11-11T08:12:02.259Z,6.50
2023-11-11T08:14:30.394Z,6.50
2023-11-11T08:16:59.090Z,6.60
2023-11-11T08:19:28.689Z,6.60
2023-11-11T08:21:56.916Z,6.70
2023-11-11T08:24:25.135Z,6.70
2023-11-11T08:26:53.204Z,6.80
2023-11-11T08:29:22.969Z,6.80
2023-11-11T08:31:51.034Z,6.90
2023-11-11T08:34:19.013Z,6.90
2023-11-11T08:36:52.960Z,7.00
2023-11-11T08:39:22.186Z,7.00
2023-11-11T08:41:50.627Z,7.10
2023-11-11T08:44:18.654Z,7.10
2023-11-11T08:46:48.086Z,7.20
2023-11-11T08:49:16.264Z,7.30
2023-11-11T08:51:44.399Z,7.30
2023-11-11T08:54:12.446Z,7.40
2023-11-11T08:56:41.742Z,7.50
2023-11-11T08:59:12.867Z,7.50
2023-11-11T09:01:40.885Z,7.60
2023-11-11T09:04:10.726Z,7.70
2023-11-11T09:06:38.865Z,7.70
2023-11-11T09:09:08.106Z,7.70
2023-11-11T09:11:40.185Z,7.80
2023-11-11T09:14:08.270Z,7.80
2023-11-11T09:16:36.445Z,7.80
2023-11-11T09:19:04.992Z,7.90
2023-11-11T09:21:35.023Z,7.90
2023-11-11T09:24:03.425Z,8.00
2023-11-11T09:26:31.416Z,8.00
2023-11-11T09:29:00.233Z,8.10
2023-11-11T09:31:29.334Z,8.20
2023-11-11T09:34:01.558Z,8.20
2023-11-11T09:36:29.964Z,8.30
2023-11-11T09:38:59.545Z,8.30
2023-11-11T09:41:27.563Z,8.30
2023-11-11T09:43:55.528Z,8.30
2023-11-11T09:46:25.328Z,8.40
2023-11-11T09:48:54.949Z,8.40
2023-11-11T09:51:24.638Z,8.40
2023-11-11T09:53:55.129Z,8.30
2023-11-11T09:59:02.296Z,8.30
2023-11-11T10:01:32.343Z,8.30
2023-11-11T10:04:00.502Z,8.30
2023-11-11T10:06:28.620Z,8.20
2023-11-11T10:08:57.080Z,8.20
2023-11-11T10:11:26.794Z,8.20
2023-11-11T10:13:56.115Z,8.20
2023-11-11T10:16:26.209Z,8.20
2023-11-11T10:18:54.652Z,8.20
2023-11-11T10:21:22.968Z,8.20
2023-11-11T10:23:51.726Z,8.20
2023-11-11T10:26:21.259Z,8.10
2023-11-11T10:28:51.449Z,8.10
2023-11-11T10:31:23.534Z,8.10
2023-11-11T10:33:53.439Z,8.10
2023-11-11T10:36:24.060Z,8.10
2023-11-11T10:38:55.731Z,8.20
2023-11-11T10:41:24.586Z,8.10
2023-11-11T10:43:57.548Z,8.10
2023-11-11T10:46:25.519Z,8.00
2023-11-11T10:48:53.879Z,8.00
2023-11-11T10:51:24.975Z,8.00
2023-11-11T10:53:54.244Z,8.00
2023-11-11T10:56:22.437Z,8.00
2023-11-11T10:58:51.944Z,8.00
2023-11-11T11:01:22.618Z,7.90
2023-11-11T11:03:51.281Z,7.90
2023-11-11T11:06:28.101Z,7.90
2023-11-11T11:09:15.440Z,7.90
2023-11-11T11:11:57.177Z,8.00
2023-11-11T11:14:37.627Z,8.00
2023-11-11T11:17:09.543Z,8.00
2023-11-11T11:19:53.438Z,8.00
2023-11-11T11:22:25.479Z,8.10
2023-11-11T11:24:53.537Z,8.00
2023-11-11T11:27:22.338Z,8.10
2023-11-11T11:29:50.371Z,8.00
2023-11-11T11:32:25.444Z,8.00
2023-11-11T11:35:23.279Z,8.00
2023-11-11T11:37:51.616Z,8.10
2023-11-11T11:40:19.877Z,8.10
2023-11-11T11:42:50.838Z,8.10
2023-11-11T11:45:30.640Z,8.10
2023-11-11T11:48:00.443Z,8.10
2023-11-11T11:50:28.854Z,8.10
2023-11-11T11:52:56.840Z,8.10
2023-11-11T11:55:25.025Z,8.10
2023-11-11T11:57:56.261Z,8.10
2023-11-11T12:00:25.400Z,8.10
2023-11-11T12:02:55.142Z,8.10
2023-11-11T12:05:25.908Z,8.10
2023-11-11T12:07:54.622Z,8.10
2023-11-11T12:10:23.033Z,8.10
2023-11-11T12:12:51.617Z,8.10
2023-11-11T12:15:19.829Z,8.10
2023-11-11T12:17:48.188Z,8.10
2023-11-11T12:20:16.638Z,8.10
2023-11-11T12:22:47.682Z,8.10
2023-11-11T12:25:15.809Z,8.10
2023-11-11T12:27:44.418Z,8.10
2023-11-11T12:30:21.058Z,8.10
2023-11-11T12:33:04.729Z,8.10
2023-11-11T12:35:33.903Z,8.10
2023-11-11T12:38:22.463Z,8.10
2023-11-11T12:40:50.877Z,8.20
2023-11-11T12:43:18.884Z,8.20
2023-11-11T12:45:50.240Z,8.30
2023-11-11T12:48:18.809Z,8.30
2023-11-11T12:50:47.233Z,8.30
2023-11-11T12:53:16.962Z,8.30
2023-11-11T12:55:45.488Z,8.30
2023-11-11T12:58:27.759Z,8.30
2023-11-11T13:00:57.439Z,8.40
2023-11-11T13:03:28.288Z,8.40
2023-11-11T13:05:56.976Z,8.30
2023-11-11T13:08:28.996Z,8.30
2023-11-11T13:11:00.299Z,8.30
2023-11-11T13:13:30.939Z,8.30
2023-11-11T13:16:00.139Z,8.30
2023-11-11T13:18:28.625Z,8.40
2023-11-11T13:20:58.222Z,8.40
2023-11-11T13:23:31.636Z,8.40
2023-11-11T13:26:01.936Z,8.40
2023-11-11T13:28:30.475Z,8.40
2023-11-11T13:30:58.443Z,8.40
2023-11-11T13:33:26.848Z,8.40
2023-11-11T13:35:57.269Z,8.40
2023-11-11T13:38:27.883Z,8.50
2023-11-11T13:40:57.203Z,8.50
2023-11-11T13:43:25.524Z,8.60
2023-11-11T13:45:54.035Z,8.50
2023-11-11T13:48:22.233Z,8.60
2023-11-11T13:50:50.349Z,8.60
2023-11-11T13:53:18.332Z,8.60
2023-11-11T13:55:46.385Z,8.60
2023-11-11T13:58:15.702Z,8.70
2023-11-11T14:00:43.676Z,8.70
2023-11-11T14:03:13.807Z,8.70
2023-11-11T14:05:43.386Z,8.80
2023-11-11T14:08:12.235Z,8.80
2023-11-11T14:10:40.504Z,8.70
2023-11-11T14:13:09.092Z,8.80
2023-11-11T14:15:41.086Z,8.70
2023-11-11T14:18:12.997Z,8.70
2023-11-11T14:20:41.452Z,8.80
2023-11-11T14:23:09.541Z,8.80
2023-11-11T14:25:37.624Z,8.80
2023-11-11T14:28:05.884Z,8.80
2023-11-11T14:30:34.054Z,8.80
2023-11-11T14:33:03.486Z,8.80
2023-11-11T14:35:31.715Z,8.90
2023-11-11T14:38:00.048Z,8.80
2023-11-11T14:40:54.715Z,8.90
2023-11-11T14:43:25.144Z,8.80
2023-11-11T14:45:53.262Z,8.80
2023-11-11T14:48:23.940Z,8.80
2023-11-11T14:50:52.703Z,8.80
2023-11-11T14:53:25.044Z,8.80
2023-11-11T14:55:53.121Z,8.80
2023-11-11T14:58:21.139Z,8.80
2023-11-11T15:00:49.637Z,8.70
2023-11-11T15:03:17.840Z,8.80
2023-11-11T15:05:49.957Z,8.70
2023-11-11T15:08:17.961Z,8.70
2023-11-11T15:10:45.968Z,8.70
2023-11-11T15:13:21.520Z,8.70
2023-11-11T15:15:50.807Z,8.60
2023-11-11T15:18:20.647Z,8.60
2023-11-11T15:20:50.985Z,8.50
2023-11-11T15:23:26.084Z,8.50
2023-11-11T15:25:58.730Z,8.40
2023-11-11T15:28:28.006Z,8.40
2023-11-11T15:30:56.444Z,8.40
2023-11-11T15:33:25.442Z,8.40
2023-11-11T15:35:56.120Z,8.40
2023-11-11T15:38:25.136Z,8.40
2023-11-11T15:40:53.558Z,8.30
2023-11-11T15:43:21.746Z,8.30
2023-11-11T15:45:49.819Z,8.30
2023-11-11T15:48:18.633Z,8.30
2023-11-11T15:50:47.162Z,8.30
2023-11-11T15:53:16.946Z,8.30
2023-11-11T15:55:48.489Z,8.30
2023-11-11T15:58:18.066Z,8.30
2023-11-11T16:00:46.536Z,8.20
2023-11-11T16:03:14.955Z,8.20
2023-11-11T16:05:43.030Z,8.20
2023-11-11T16:08:11.483Z,8.20
2023-11-11T16:10:40.760Z,8.20
2023-11-11T16:13:08.706Z,8.20
2023-11-11T16:15:36.904Z,8.20
2023-11-11T16:18:05.624Z,8.20
2023-11-11T16:20:33.626Z,8.20
2023-11-11T16:23:01.532Z,8.20
2023-11-11T16:25:29.577Z,8.20
2023-11-11T16:27:58.910Z,8.20
2023-11-11T16:30:27.139Z,8.10
2023-11-11T16:32:55.265Z,8.10
2023-11-11T16:35:23.209Z,8.10
2023-11-11T16:37:51.160Z,8.10
2023-11-11T16:40:19.194Z,8.10
2023-11-11T16:42:47.154Z,8.10
2023-11-11T16:45:16.593Z,8.10
2023-11-11T16:47:44.518Z,8.10
2023-11-11T16:50:15.627Z,8.00
2023-11-11T16:52:43.578Z,8.00
2023-11-11T16:55:13.231Z,8.00
2023-11-11T16:57:41.314Z,8.00
2023-11-11T17:00:12.583Z,8.00
2023-11-11T17:02:42.004Z,8.00
2023-11-11T17:05:10.530Z,8.00
2023-11-11T17:07:38.422Z,8.00
2023-11-11T17:10:07.453Z,8.00
2023-11-11T17:12:35.669Z,7.90
2023-11-11T17:15:04.189Z,7.90
2023-11-11T17:17:32.153Z,7.90
2023-11-11T17:20:01.662Z,7.90
2023-11-11T17:22:29.744Z,7.90
2023-11-11T17:24:58.296Z,7.90
2023-11-11T17:27:26.216Z,7.90
2023-11-11T17:29:55.387Z,7.90
2023-11-11T17:32:23.674Z,7.80
2023-11-11T17:34:51.907Z,7.80
2023-11-11T17:37:21.647Z,7.90
2023-11-11T17:39:49.536Z,7.80
2023-11-11T17:42:17.574Z,7.80
2023-11-11T17:44:45.599Z,7.90
2023-11-11T17:47:13.701Z,7.80
2023-11-11T17:49:41.758Z,7.80
2023-11-11T17:52:11.768Z,7.80
2023-11-11T17:54:41.816Z,7.80
2023-11-11T17:57:10.686Z,7.80
2023-11-11T17:59:39.300Z,7.80
2023-11-11T18:02:07.833Z,7.80
2023-11-11T18:04:36.390Z,7.80
2023-11-11T18:07:04.719Z,7.70
2023-11-11T18:09:32.686Z,7.70
2023-11-11T18:12:02.290Z,7.70
2023-11-11T18:14:30.218Z,7.70
2023-11-11T18:16:58.317Z,7.70
2023-11-11T18:19:26.324Z,7.70
2023-11-11T18:21:54.289Z,7.70
2023-11-11T18:24:22.254Z,7.70
2023-11-11T18:26:50.242Z,7.70
2023-11-11T18:29:19.767Z,7.70
2023-11-11T18:31:48.866Z,7.60
2023-11-11T18:34:17.453Z,7.60
2023-11-11T18:36:46.401Z,7.60
2023-11-11T18:39:14.475Z,7.60
2023-11-11T18:41:42.407Z,7.60
2023-11-11T18:44:12.679Z,7.60
2023-11-11T18:46:42.277Z,7.60
2023-11-11T18:49:10.424Z,7.60
2023-11-11T18:51:40.111Z,7.60
2023-11-11T18:54:08.050Z,7.50
2023-11-11T18:56:36.021Z,7.50
2023-11-11T18:59:04.142Z,7.50
2023-11-11T19:01:32.179Z,7.50
2023-11-11T19:04:01.511Z,7.40
2023-11-11T19:06:29.442Z,7.40
2023-11-11T19:08:57.333Z,7.40
2023-11-11T19:11:26.366Z,7.40
2023-11-11T19:13:54.400Z,7.30
2023-11-11T19:16:22.469Z,7.30
2023-11-11T19:18:50.526Z,7.30
2023-11-11T19:21:20.429Z,7.30
2023-11-11T19:23:48.376Z,7.20
2023-11-11T19:26:21.003Z,7.20
2023-11-11T19:28:48.960Z,7.20
2023-11-11T19:31:17.171Z,7.20
2023-11-11T19:33:45.172Z,7.10
2023-11-11T19:36:13.142Z,7.10
2023-11-11T19:38:42.639Z,7.10
2023-11-11T19:41:12.862Z,7.10
2023-11-11T19:43:41.105Z,7.00
2023-11-11T19:46:09.260Z,7.00
2023-11-11T19:48:37.246Z,7.00
2023-11-11T19:51:05.858Z,7.00
2023-11-11T19:53:33.888Z,7.00
2023-11-11T19:56:05.530Z,6.90
2023-11-11T19:58:33.506Z,6.90
2023-11-11T20:01:01.484Z,6.90
2023-11-11T20:03:29.558Z,6.90
2023-11-11T20:05:58.255Z,6.90
2023-11-11T20:08:26.194Z,6.80
2023-11-11T20:10:54.790Z,6.80
2023-11-11T20:13:24.992Z,6.80
2023-11-11T20:15:53.056Z,6.80
2023-11-11T20:18:20.997Z,6.80
2023-11-11T20:20:49.007Z,6.80
2023-11-11T20:23:16.949Z,6.70
2023-11-11T20:25:45.229Z,6.70
2023-11-11T20:28:13.333Z,6.70
2023-11-11T20:30:42.682Z,6.70
2023-11-11T20:33:12.251Z,6.60
2023-11-11T20:35:40.708Z,6.60
2023-11-11T20:38:09.023Z,6.60
2023-11-11T20:40:37.262Z,6.60
2023-11-11T20:43:05.277Z,6.60
2023-11-11T20:45:33.347Z,6.60
2023-11-11T20:48:02.701Z,6.60
2023-11-11T20:50:30.668Z,6.50
2023-11-11T20:52:58.648Z,6.50
2023-11-11T20:55:26.813Z,6.50
2023-11-11T20:57:54.008Z,6.40
2023-11-11T21:00:23.814Z,6.40
2023-11-11T21:02:52.478Z,6.40
2023-11-11T21:05:24.423Z,6.40
2023-11-11T21:07:52.427Z,6.40
2023-11-11T21:10:20.626Z,6.40
2023-11-11T21:12:50.683Z,6.40
2023-11-11T21:15:20.058Z,6.30
2023-11-11T21:17:48.387Z,6.30
2023-11-11T21:20:16.919Z,6.30
2023-11-11T21:22:48.715Z,6.30
2023-11-11T21:25:16.911Z,6.30
2023-11-11T21:27:44.863Z,6.20
2023-11-11T21:30:14.165Z,6.20
2023-11-11T21:32:42.379Z,6.20
2023-11-11T21:35:11.224Z,6.10
2023-11-11T21:37:39.273Z,6.10
2023-11-11T21:40:11.922Z,6.10
2023-11-11T21:42:40.089Z,6.10
2023-11-11T21:45:08.552Z,6.10
2023-11-11T21:47:36.578Z,6.10
2023-11-11T21:50:06.424Z,6.10
2023-11-11T21:52:37.279Z,6.10
2023-11-11T21:55:05.971Z,6.00
2023-11-11T21:57:35.292Z,6.00
2023-11-11T22:00:04.500Z,5.90
2023-11-11T22:02:39.862Z,5.90
2023-11-11T22:05:08.888Z,5.90
2023-11-11T22:07:37.073Z,5.90
2023-11-11T22:10:06.573Z,5.80
2023-11-11T22:12:35.884Z,5.80
2023-11-11T22:15:04.010Z,5.80
2023-11-11T22:17:32.069Z,5.80
2023-11-11T22:20:00.794Z,5.70
2023-11-11T22:22:28.746Z,5.70
2023-11-11T22:24:56.679Z,5.60
2023-11-11T22:27:24.637Z,5.60
2023-11-11T22:29:53.967Z,5.60
2023-11-11T22:32:22.420Z,5.60
2023-11-11T22:34:50.380Z,5.60
2023-11-11T22:37:18.940Z,5.60
2023-11-11T22:39:47.284Z,5.50
2023-11-11T22:42:15.262Z,5.50
2023-11-11T22:44:44.625Z,5.50
2023-11-11T22:47:13.971Z,5.50
2023-11-11T22:49:42.217Z,5.60
2023-11-11T22:52:10.189Z,5.50
2023-11-11T22:54:38.138Z,5.50
2023-11-11T22:57:06.152Z,5.60
2023-11-11T22:59:34.066Z,5.50
2023-11-11T23:02:02.045Z,5.50
2023-11-11T23:04:31.361Z,5.60
2023-11-11T23:06:59.415Z,5.50
2023-11-11T23:09:27.376Z,5.50
2023-11-11T23:11:55.772Z,5.60
2023-11-11T23:14:23.787Z,5.60
2023-11-11T23:16:51.934Z,5.60
2023-11-11T23:19:19.911Z,5.60
2023-11-11T23:21:49.167Z,5.60
2023-11-11T23:24:17.156Z,5.60
2023-11-11T23:26:45.163Z,5.60
2023-11-11T23:29:13.142Z,5.60
2023-11-11T23:31:41.256Z,5.60
2023-11-11T23:34:09.178Z,5.70
2023-11-11T23:36:37.267Z,5.70
2023-11-11T23:39:06.763Z,5.70
2023-11-11T23:41:36.044Z,5.70
2023-11-11T23:44:05.078Z,5.80
2023-11-11T23:46:34.526Z,5.80
2023-11-11T23:49:02.492Z,5.90
2023-11-11T23:51:30.921Z,5.90
2023-11-11T23:53:58.933Z,6.00
2023-11-11T23:56:28.530Z,6.00
2023-11-11T23:58:56.845Z,6.00
